Time;durP1;ratioP1;P1;durP2;ratioP2;P2;SDS_P1;SDS_P2;PMS_P1;PMS_P2;Temp;Humidity;BMP_temperature;BMP_pressure;BME280_temperature;BME280_humidity;BME280_pressure;Samples;Min_cycle;Max_cycle;Signal;HPM_P1;HPM_P2
2023/06/13 00:00:59;;;;;;;7.40;3.30;;;15.00;99.90;;;;;;5002894;28;20040;-82
2023/06/13 00:03:26;;;;;;;6.65;3.35;;;15.00;99.90;;;;;;5002533;28;20453;-83
2023/06/13 00:05:54;;;;;;;8.32;3.40;;;14.90;99.90;;;;;;5001756;28;20057;-84
2023/06/13 00:08:21;;;;;;;5.40;3.10;;;14.90;99.90;;;;;;5001968;28;20030;-82
2023/06/13 00:10:50;;;;;;;7.05;3.28;;;14.90;99.90;;;;;;5004052;28;20498;-83
2023/06/13 00:13:17;;;;;;;6.25;3.03;;;14.80;99.90;;;;;;5003639;28;20083;-82
2023/06/13 00:15:56;;;;;;;7.60;3.30;;;14.80;99.90;;;;;;5003348;28;20034;-82
2023/06/13 00:18:24;;;;;;;7.88;3.03;;;14.80;99.90;;;;;;5002483;28;20046;-81
2023/06/13 00:20:54;;;;;;;7.10;3.30;;;14.70;99.90;;;;;;5002907;28;20537;-82
2023/06/13 00:23:20;;;;;;;7.10;3.17;;;14.70;99.90;;;;;;5003637;28;20026;-83
2023/06/13 00:25:46;;;;;;;7.50;3.15;;;14.60;99.90;;;;;;5002880;28;20439;-82
2023/06/13 00:28:12;;;;;;;5.60;3.53;;;14.60;99.90;;;;;;5003426;28;20113;-82
2023/06/13 00:30:37;;;;;;;7.63;3.15;;;14.60;99.90;;;;;;5004220;28;20040;-82
2023/06/13 00:33:04;;;;;;;5.85;3.50;;;14.60;99.90;;;;;;5003427;28;20112;-82
2023/06/13 00:35:30;;;;;;;11.73;3.20;;;14.50;99.90;;;;;;5002300;28;20049;-83
2023/06/13 00:37:56;;;;;;;7.10;3.50;;;14.50;99.90;;;;;;5003198;28;20667;-81
2023/06/13 00:40:25;;;;;;;7.07;3.60;;;14.40;99.90;;;;;;5002753;28;20076;-82
2023/06/13 00:42:52;;;;;;;6.25;3.22;;;14.40;99.90;;;;;;5002153;28;20015;-82
2023/06/13 00:45:28;;;;;;;7.47;3.00;;;14.30;99.90;;;;;;5001567;28;20034;-82
2023/06/13 00:47:59;;;;;;;6.72;3.20;;;14.30;99.90;;;;;;5002879;28;20103;-82
2023/06/13 00:50:33;;;;;;;8.20;3.20;;;14.30;99.90;;;;;;5002854;28;20506;-82
2023/06/13 00:53:09;;;;;;;5.53;3.33;;;14.30;99.90;;;;;;5001290;28;20038;-82
2023/06/13 00:55:36;;;;;;;5.57;3.50;;;14.30;99.90;;;;;;5001195;28;20151;-82
2023/06/13 00:58:06;;;;;;;5.90;3.22;;;14.20;99.90;;;;;;5003590;28;20026;-83
2023/06/13 01:00:34;;;;;;;5.13;3.10;;;14.20;99.90;;;;;;5003820;28;20052;-82
2023/06/13 01:03:02;;;;;;;4.90;2.95;;;14.10;99.90;;;;;;5002113;28;20030;-83
2023/06/13 01:05:28;;;;;;;6.25;3.13;;;14.10;99.90;;;;;;5001402;28;20038;-82
2023/06/13 01:07:57;;;;;;;9.07;4.03;;;14.10;99.90;;;;;;5003321;28;20729;-82
2023/06/13 01:10:36;;;;;;;8.93;3.58;;;14.10;99.90;;;;;;5002044;28;20041;-84
2023/06/13 01:13:16;;;;;;;8.27;3.70;;;14.00;99.90;;;;;;5001901;28;20199;-83
2023/06/13 01:16:03;;;;;;;6.00;3.50;;;14.00;99.90;;;;;;5002517;28;20061;-84
2023/06/13 01:18:30;;;;;;;6.07;3.50;;;14.00;99.90;;;;;;5002511;28;20068;-82
2023/06/13 01:21:00;;;;;;;6.22;3.35;;;13.90;99.90;;;;;;5002845;28;20153;-81
2023/06/13 01:23:55;;;;;;;5.13;3.25;;;13.90;99.90;;;;;;5004298;28;20026;-83
2023/06/13 01:26:57;;;;;;;7.07;3.53;;;13.80;99.90;;;;;;4989892;28;20057;-82
2023/06/13 01:29:23;;;;;;;7.10;3.38;;;13.70;99.90;;;;;;5003300;28;20064;-82
2023/06/13 01:31:55;;;;;;;10.27;3.40;;;13.70;99.90;;;;;;5000624;28;20096;-82
2023/06/13 01:34:21;;;;;;;7.03;3.10;;;13.60;99.90;;;;;;5003166;28;20115;-81
2023/06/13 01:36:47;;;;;;;5.70;3.33;;;13.60;99.90;;;;;;5001678;28;20030;-85
2023/06/13 01:39:13;;;;;;;5.45;3.38;;;13.50;99.90;;;;;;5003072;28;20034;-81
2023/06/13 01:41:39;;;;;;;8.65;3.60;;;13.50;99.90;;;;;;5002962;28;20037;-81
2023/06/13 01:44:06;;;;;;;6.55;3.40;;;13.40;99.90;;;;;;5001995;28;20437;-83
2023/06/13 01:46:48;;;;;;;4.85;3.15;;;13.40;99.90;;;;;;5000365;28;20033;-83
2023/06/13 01:49:23;;;;;;;9.43;3.38;;;13.30;99.90;;;;;;5003050;28;20118;-81
2023/06/13 01:51:55;;;;;;;4.85;3.05;;;13.30;99.90;;;;;;5001892;28;20034;-83
2023/06/13 01:54:22;;;;;;;5.88;3.20;;;13.20;99.90;;;;;;5001072;28;20149;-83
2023/06/13 01:56:54;;;;;;;6.97;3.78;;;13.20;99.90;;;;;;5000404;28;20041;-83
2023/06/13 01:59:25;;;;;;;6.28;3.22;;;13.10;99.90;;;;;;5000149;28;20059;-82
2023/06/13 02:01:53;;;;;;;12.82;4.03;;;13.10;99.90;;;;;;5000607;28;20034;-83
2023/06/13 02:04:19;;;;;;;6.78;3.35;;;13.00;99.90;;;;;;4999082;28;20083;-82
2023/06/13 02:06:45;;;;;;;6.88;3.70;;;12.90;99.90;;;;;;4999347;28;20038;-83
2023/06/13 02:09:11;;;;;;;10.52;3.33;;;12.90;99.90;;;;;;5002383;28;20081;-85
2023/06/13 02:11:37;;;;;;;7.78;3.40;;;12.80;99.90;;;;;;5000397;28;20078;-81
2023/06/13 02:14:02;;;;;;;5.90;3.55;;;12.80;99.90;;;;;;5000542;28;20126;-85
2023/06/13 02:16:30;;;;;;;5.80;3.60;;;12.70;99.90;;;;;;4999191;28;20037;-84
2023/06/13 02:18:59;;;;;;;8.75;3.45;;;12.70;99.90;;;;;;4997898;28;20496;-82
2023/06/13 02:21:25;;;;;;;5.72;3.42;;;12.60;99.90;;;;;;4999632;28;20104;-86
2023/06/13 02:23:51;;;;;;;6.38;4.03;;;12.60;99.90;;;;;;4996859;28;20692;-81
2023/06/13 02:26:16;;;;;;;6.15;3.35;;;12.60;99.90;;;;;;5001183;28;20082;-85
2023/06/13 02:28:42;;;;;;;5.72;3.47;;;12.50;99.90;;;;;;5003800;28;20084;-83
2023/06/13 02:31:08;;;;;;;5.40;3.63;;;12.40;99.90;;;;;;5001318;28;20061;-86
2023/06/13 02:33:36;;;;;;;6.43;3.53;;;12.30;99.90;;;;;;5001728;28;20383;-86
2023/06/13 02:36:04;;;;;;;7.18;4.15;;;12.30;99.90;;;;;;5001683;28;20054;-82
2023/06/13 02:38:29;;;;;;;7.20;3.72;;;12.30;99.90;;;;;;5001392;28;20069;-83
2023/06/13 02:40:55;;;;;;;6.68;3.50;;;12.20;99.90;;;;;;5001769;28;20060;-83
2023/06/13 02:43:21;;;;;;;7.60;3.58;;;12.20;99.90;;;;;;5002023;28;20030;-82
2023/06/13 02:45:47;;;;;;;14.05;4.32;;;12.10;99.90;;;;;;5002434;28;20479;-87
2023/06/13 02:48:12;;;;;;;5.20;3.53;;;12.10;99.90;;;;;;5002489;28;20107;-82
2023/06/13 02:50:38;;;;;;;10.25;3.80;;;12.00;99.90;;;;;;5001188;28;20088;-82
2023/06/13 02:53:03;;;;;;;6.93;3.67;;;12.00;99.90;;;;;;5000374;28;20053;-84
2023/06/13 02:55:30;;;;;;;8.43;4.00;;;12.00;99.90;;;;;;5005370;28;20081;-81
2023/06/13 02:57:55;;;;;;;8.32;3.95;;;12.00;99.90;;;;;;5003391;28;20104;-82
2023/06/13 03:00:21;;;;;;;8.48;3.55;;;11.90;99.90;;;;;;5003665;28;20026;-84
2023/06/13 03:02:47;;;;;;;10.35;4.28;;;11.90;99.90;;;;;;5005125;28;20018;-82
2023/06/13 03:05:17;;;;;;;8.40;3.70;;;11.80;99.90;;;;;;5006670;28;20084;-83
2023/06/13 03:07:48;;;;;;;8.10;3.75;;;11.80;99.90;;;;;;5006181;28;20057;-81
2023/06/13 03:10:15;;;;;;;10.23;3.85;;;11.80;99.90;;;;;;5005531;28;20037;-82
2023/06/13 03:12:41;;;;;;;7.07;3.40;;;11.70;99.90;;;;;;5007700;28;20057;-82
2023/06/13 03:15:07;;;;;;;8.87;3.77;;;11.70;99.90;;;;;;5005014;28;20041;-82
2023/06/13 03:17:33;;;;;;;8.27;4.27;;;11.60;99.90;;;;;;5005049;28;20034;-83
2023/06/13 03:19:59;;;;;;;7.03;3.60;;;11.60;99.90;;;;;;5003194;28;20041;-82
2023/06/13 03:22:25;;;;;;;7.27;3.50;;;11.60;99.90;;;;;;5003963;28;20116;-83
2023/06/13 03:24:52;;;;;;;8.90;3.77;;;11.60;99.90;;;;;;5002389;28;20034;-82
2023/06/13 03:27:18;;;;;;;6.70;3.80;;;11.50;99.90;;;;;;5003383;28;20450;-82
2023/06/13 03:29:44;;;;;;;6.37;3.60;;;11.50;99.90;;;;;;5003720;28;20089;-86
2023/06/13 03:32:11;;;;;;;5.30;3.63;;;11.40;99.90;;;;;;5004197;28;20030;-82
2023/06/13 03:34:40;;;;;;;5.60;3.53;;;11.40;99.90;;;;;;5004121;28;20177;-81
2023/06/13 03:37:09;;;;;;;6.88;3.63;;;11.40;99.90;;;;;;4986400;28;20168;-83
2023/06/13 03:39:35;;;;;;;4.03;3.43;;;11.40;99.90;;;;;;5004264;28;20800;-82
2023/06/13 03:42:01;;;;;;;4.97;3.50;;;11.30;99.90;;;;;;5003894;28;20089;-81
2023/06/13 03:44:28;;;;;;;5.37;3.80;;;11.40;99.90;;;;;;5003814;28;20109;-86
2023/06/13 03:46:57;;;;;;;7.10;3.57;;;11.40;99.90;;;;;;5004167;28;20028;-86
2023/06/13 03:49:24;;;;;;;5.27;3.33;;;11.30;99.90;;;;;;5005773;28;20034;-83
2023/06/13 03:51:50;;;;;;;5.00;3.20;;;11.40;99.90;;;;;;5008765;28;20030;-82
2023/06/13 03:54:15;;;;;;;7.70;3.70;;;11.30;99.90;;;;;;5005995;28;20046;-83
2023/06/13 03:56:41;;;;;;;9.67;3.93;;;11.30;99.90;;;;;;5007401;28;20125;-83
2023/06/13 03:59:06;;;;;;;6.67;3.53;;;11.30;99.90;;;;;;5006226;28;20038;-89
2023/06/13 04:01:32;;;;;;;9.30;3.97;;;11.30;99.90;;;;;;5005859;28;20677;-83
2023/06/13 04:03:57;;;;;;;10.63;3.90;;;11.30;99.90;;;;;;5004963;28;20434;-82
2023/06/13 04:06:23;;;;;;;6.37;3.63;;;11.30;99.90;;;;;;5004226;28;21403;-82
2023/06/13 04:08:49;;;;;;;8.37;3.73;;;11.30;99.90;;;;;;5005096;28;20034;-82
2023/06/13 04:11:14;;;;;;;11.13;3.50;;;11.40;99.90;;;;;;5004423;28;20030;-84
2023/06/13 04:13:41;;;;;;;6.73;3.87;;;11.40;99.90;;;;;;5001916;28;20127;-83
2023/06/13 04:16:06;;;;;;;6.60;3.60;;;11.40;99.90;;;;;;5002915;28;20096;-83
2023/06/13 04:18:33;;;;;;;8.87;3.37;;;11.50;99.90;;;;;;5003963;28;20705;-84
2023/06/13 04:20:59;;;;;;;9.37;3.30;;;11.40;99.90;;;;;;5002466;28;20050;-83
2023/06/13 04:23:27;;;;;;;9.53;3.87;;;11.50;99.90;;;;;;5001664;28;20332;-81
2023/06/13 04:25:54;;;;;;;10.70;3.73;;;11.60;99.90;;;;;;5004632;28;20045;-86
2023/06/13 04:28:21;;;;;;;6.77;3.80;;;11.60;99.90;;;;;;5002334;28;21318;-84
2023/06/13 04:30:48;;;;;;;7.38;3.80;;;11.60;99.90;;;;;;4985024;28;20039;-82
2023/06/13 04:33:17;;;;;;;6.63;3.63;;;11.70;99.90;;;;;;5003216;28;20080;-82
2023/06/13 04:35:46;;;;;;;9.18;3.63;;;11.70;99.90;;;;;;5001701;28;20246;-82
2023/06/13 04:38:13;;;;;;;8.93;3.93;;;11.80;99.90;;;;;;5003061;28;20443;-84
2023/06/13 04:40:39;;;;;;;8.80;3.60;;;11.80;99.90;;;;;;5001955;28;20044;-81
2023/06/13 04:43:05;;;;;;;18.25;5.22;;;11.90;99.90;;;;;;5001609;28;20030;-84
2023/06/13 04:45:31;;;;;;;11.03;3.73;;;11.90;99.90;;;;;;5002102;28;20069;-83
2023/06/13 04:48:03;;;;;;;6.50;3.53;;;12.00;99.90;;;;;;4999981;28;20115;-84
2023/06/13 04:50:31;;;;;;;11.40;4.13;;;12.10;99.90;;;;;;5000425;28;20455;-86
2023/06/13 04:52:57;;;;;;;13.52;3.80;;;12.20;99.90;;;;;;4998265;28;20026;-81
2023/06/13 04:55:28;;;;;;;6.80;4.13;;;12.20;99.90;;;;;;4998971;28;21062;-82
2023/06/13 04:57:54;;;;;;;13.02;3.88;;;12.30;99.90;;;;;;5000674;28;20029;-84
2023/06/13 05:00:20;;;;;;;6.93;3.78;;;12.40;99.90;;;;;;5002334;28;20553;-84
2023/06/13 05:02:46;;;;;;;7.93;3.17;;;12.40;99.90;;;;;;4998429;28;20064;-84
2023/06/13 05:05:14;;;;;;;11.55;4.13;;;12.50;99.90;;;;;;5000236;28;20098;-83
2023/06/13 05:07:40;;;;;;;7.85;3.75;;;12.60;99.90;;;;;;4999621;28;20096;-83
2023/06/13 05:10:07;;;;;;;7.45;3.47;;;12.70;99.90;;;;;;4999826;28;20382;-82
2023/06/13 05:12:33;;;;;;;7.72;3.58;;;12.80;99.90;;;;;;4999462;28;20125;-83
2023/06/13 05:14:59;;;;;;;16.23;3.80;;;12.90;99.90;;;;;;5000120;28;21473;-82
2023/06/13 05:17:24;;;;;;;9.10;3.72;;;13.00;99.90;;;;;;4999399;28;20027;-81
2023/06/13 05:19:50;;;;;;;9.43;4.03;;;13.10;99.90;;;;;;4999188;28;20034;-83
2023/06/13 05:22:16;;;;;;;11.02;3.85;;;13.20;99.90;;;;;;5000550;28;20022;-82
2023/06/13 05:24:41;;;;;;;7.97;3.20;;;13.30;99.90;;;;;;5000817;28;20105;-81
2023/06/13 05:27:07;;;;;;;8.10;3.63;;;13.40;99.90;;;;;;4999590;28;20029;-82
2023/06/13 05:29:33;;;;;;;9.68;3.30;;;13.50;99.90;;;;;;4998084;28;20033;-73
2023/06/13 05:31:58;;;;;;;10.40;3.22;;;13.60;99.90;;;;;;4996976;28;20034;-72
2023/06/13 05:34:24;;;;;;;8.20;3.20;;;13.70;99.90;;;;;;5003700;28;20041;-84
2023/06/13 05:36:50;;;;;;;9.90;3.55;;;13.80;99.90;;;;;;5003446;28;20082;-90
2023/06/13 05:39:18;;;;;;;9.27;3.45;;;13.90;99.90;;;;;;5003441;28;20037;-85
2023/06/13 05:41:45;;;;;;;7.22;3.58;;;14.00;99.90;;;;;;5004531;28;20113;-89
2023/06/13 05:44:13;;;;;;;7.80;3.20;;;14.10;99.90;;;;;;5003215;28;20095;-87
2023/06/13 05:46:38;;;;;;;8.90;3.10;;;14.20;99.90;;;;;;5001128;28;20112;-89
2023/06/13 05:49:04;;;;;;;8.98;3.40;;;14.30;99.90;;;;;;5001044;28;20060;-86
2023/06/13 05:51:30;;;;;;;8.25;3.53;;;14.40;99.90;;;;;;5000657;28;20084;-86
2023/06/13 05:53:56;;;;;;;8.85;3.40;;;14.40;99.90;;;;;;5001109;28;20037;-85
2023/06/13 05:56:25;;;;;;;8.43;3.40;;;14.60;99.90;;;;;;5004382;28;20033;-84
2023/06/13 05:58:51;;;;;;;7.45;3.13;;;14.60;99.90;;;;;;5002820;28;20045;-89
2023/06/13 06:01:19;;;;;;;6.93;3.47;;;14.70;99.90;;;;;;5001994;28;20034;-88
2023/06/13 06:03:45;;;;;;;9.75;3.00;;;14.80;99.90;;;;;;5003299;28;20065;-90
2023/06/13 06:06:10;;;;;;;6.78;3.00;;;14.80;99.90;;;;;;5004541;28;20090;-84
2023/06/13 06:08:36;;;;;;;7.25;3.10;;;14.90;99.90;;;;;;5005075;28;20090;-85
2023/06/13 06:11:03;;;;;;;9.15;3.30;;;14.90;99.90;;;;;;5002737;28;20036;-82
2023/06/13 06:13:30;;;;;;;6.63;3.00;;;15.00;99.90;;;;;;5003368;28;20030;-83
2023/06/13 06:15:55;;;;;;;10.80;3.15;;;15.10;99.90;;;;;;5001848;28;20139;-85
2023/06/13 06:18:22;;;;;;;5.95;2.67;;;15.20;99.90;;;;;;5004362;28;20033;-84
2023/06/13 06:20:47;;;;;;;6.70;3.22;;;15.30;99.90;;;;;;5005895;28;20125;-83
2023/06/13 06:23:14;;;;;;;9.50;3.05;;;15.30;99.90;;;;;;5000026;28;20153;-86
2023/06/13 06:25:42;;;;;;;9.23;3.10;;;15.40;99.90;;;;;;5002060;28;20034;-85
2023/06/13 06:28:09;;;;;;;8.15;2.55;;;15.50;99.90;;;;;;5002672;28;20064;-84
2023/06/13 06:30:35;;;;;;;4.78;2.88;;;15.60;99.90;;;;;;5005928;28;20065;-86
2023/06/13 06:33:01;;;;;;;6.82;3.10;;;15.70;99.90;;;;;;5006283;28;20035;-84
2023/06/13 06:35:27;;;;;;;8.70;2.70;;;15.80;99.90;;;;;;5003956;28;20077;-82
2023/06/13 06:37:52;;;;;;;8.68;3.03;;;15.90;99.90;;;;;;5007045;28;20030;-84
2023/06/13 06:40:18;;;;;;;5.60;2.90;;;16.00;99.90;;;;;;5006817;28;20535;-84
2023/06/13 06:42:44;;;;;;;15.35;3.15;;;16.20;99.90;;;;;;5006323;28;20714;-83
2023/06/13 06:45:10;;;;;;;8.45;2.97;;;16.30;99.90;;;;;;5003814;28;20036;-86
2023/06/13 06:47:36;;;;;;;9.88;2.53;;;16.30;99.90;;;;;;5004761;28;20031;-87
2023/06/13 06:50:01;;;;;;;9.02;2.97;;;16.40;99.90;;;;;;5007481;28;20537;-82
2023/06/13 06:52:28;;;;;;;6.03;2.40;;;16.50;99.90;;;;;;5004708;28;20856;-82
2023/06/13 06:54:54;;;;;;;6.30;3.08;;;16.60;99.90;;;;;;5005253;28;20038;-82
2023/06/13 06:57:19;;;;;;;6.97;2.60;;;16.60;99.90;;;;;;5002958;28;20097;-83
2023/06/13 06:59:45;;;;;;;6.88;2.53;;;16.70;99.90;;;;;;5001358;28;20026;-83
2023/06/13 07:02:10;;;;;;;5.93;2.65;;;16.70;99.90;;;;;;5002586;28;20430;-82
2023/06/13 07:04:36;;;;;;;4.80;2.42;;;16.80;99.90;;;;;;4999373;28;20518;-83
2023/06/13 07:07:02;;;;;;;10.35;2.88;;;17.00;99.90;;;;;;5000053;28;20117;-84
2023/06/13 07:09:27;;;;;;;4.35;3.00;;;17.00;99.90;;;;;;4999752;28;20034;-81
2023/06/13 07:11:56;;;;;;;6.60;2.83;;;17.00;99.90;;;;;;5000032;28;20123;-83
2023/06/13 07:14:23;;;;;;;10.68;3.17;;;17.10;99.90;;;;;;5001978;28;20132;-84
2023/06/13 07:16:49;;;;;;;6.53;2.88;;;17.10;99.90;;;;;;5000719;28;20780;-83
2023/06/13 07:19:15;;;;;;;9.13;3.10;;;17.00;99.90;;;;;;5000938;28;20082;-83
2023/06/13 07:21:41;;;;;;;6.85;2.58;;;16.90;99.90;;;;;;5001756;28;20033;-83
2023/06/13 07:24:06;;;;;;;8.75;3.03;;;17.00;99.90;;;;;;5001441;28;20030;-83
2023/06/13 07:26:32;;;;;;;7.22;2.92;;;17.00;99.90;;;;;;5001578;28;20029;-82
2023/06/13 07:28:58;;;;;;;7.32;2.70;;;17.10;99.90;;;;;;5002959;28;20181;-84
2023/06/13 07:31:23;;;;;;;6.20;2.72;;;17.10;99.90;;;;;;5002149;28;20030;-84
2023/06/13 07:33:50;;;;;;;7.07;2.63;;;17.10;99.90;;;;;;5003088;28;20052;-82
2023/06/13 07:36:16;;;;;;;6.20;2.65;;;17.10;99.90;;;;;;4999586;28;20034;-82
2023/06/13 07:38:41;;;;;;;5.65;2.83;;;17.10;99.90;;;;;;5000774;28;21448;-83
2023/06/13 07:41:07;;;;;;;8.00;3.08;;;17.20;99.90;;;;;;5000727;28;20124;-83
2023/06/13 07:43:33;;;;;;;5.78;2.42;;;17.30;99.90;;;;;;5001403;28;20041;-84
2023/06/13 07:45:58;;;;;;;11.55;2.90;;;17.30;99.90;;;;;;5001076;28;20049;-83
2023/06/13 07:48:25;;;;;;;7.28;2.58;;;17.50;99.90;;;;;;5001299;28;20029;-81
2023/06/13 07:50:50;;;;;;;5.75;2.80;;;17.60;99.90;;;;;;5000963;28;20112;-83
2023/06/13 07:53:18;;;;;;;5.75;2.80;;;17.60;99.90;;;;;;5001373;28;20034;-83
2023/06/13 07:55:47;;;;;;;9.20;2.88;;;17.60;99.90;;;;;;5001983;28;20049;-85
2023/06/13 07:58:13;;;;;;;10.15;3.00;;;17.60;99.90;;;;;;5001438;28;20040;-84
2023/06/13 08:00:39;;;;;;;6.13;3.13;;;17.60;99.90;;;;;;4999933;28;20110;-83
2023/06/13 08:03:05;;;;;;;8.30;2.72;;;17.70;99.90;;;;;;5000764;28;20065;-82
2023/06/13 08:05:30;;;;;;;8.75;3.17;;;17.70;99.90;;;;;;5000321;28;20118;-83
2023/06/13 08:07:57;;;;;;;4.03;2.55;;;17.70;99.90;;;;;;5001315;28;20034;-82
2023/06/13 08:10:23;;;;;;;6.03;3.03;;;17.70;99.90;;;;;;5001127;28;20026;-81
2023/06/13 08:12:49;;;;;;;5.22;2.60;;;17.80;99.90;;;;;;5001466;28;20034;-83
2023/06/13 08:15:15;;;;;;;8.25;2.78;;;17.90;99.90;;;;;;4999648;28;20108;-82
2023/06/13 08:17:43;;;;;;;7.03;2.42;;;17.90;99.90;;;;;;5000049;28;20984;-83
2023/06/13 08:20:09;;;;;;;5.00;2.58;;;18.00;99.90;;;;;;5000106;28;20386;-82
2023/06/13 08:22:38;;;;;;;7.82;2.88;;;18.00;99.90;;;;;;5000159;28;20030;-82
2023/06/13 08:25:04;;;;;;;4.65;2.50;;;18.00;99.90;;;;;;5000102;28;20030;-82
2023/06/13 08:27:30;;;;;;;5.30;2.70;;;18.10;99.90;;;;;;5000314;28;20110;-82
2023/06/13 08:29:56;;;;;;;5.63;2.60;;;18.10;99.90;;;;;;4999873;28;20029;-82
2023/06/13 08:32:22;;;;;;;3.72;2.42;;;18.10;99.90;;;;;;4999616;28;20402;-83
2023/06/13 08:34:47;;;;;;;5.25;2.22;;;18.20;99.90;;;;;;4999897;28;20046;-83
2023/06/13 08:37:13;;;;;;;9.68;3.17;;;18.20;99.90;;;;;;4998842;28;20022;-82
2023/06/13 08:39:38;;;;;;;6.13;2.45;;;18.30;99.90;;;;;;5000157;28;20699;-81
2023/06/13 08:42:06;;;;;;;6.68;2.47;;;18.40;99.90;;;;;;4998858;28;20049;-81
2023/06/13 08:44:32;;;;;;;8.50;2.80;;;18.40;99.90;;;;;;5001103;28;20049;-80
2023/06/13 08:46:58;;;;;;;4.82;2.50;;;18.50;99.90;;;;;;4998897;28;20026;-81
2023/06/13 08:49:24;;;;;;;7.35;2.25;;;18.70;99.90;;;;;;5000218;28;20033;-84
2023/06/13 08:51:52;;;;;;;8.07;2.50;;;18.70;99.90;;;;;;4999545;28;20897;-82
2023/06/13 08:54:19;;;;;;;6.25;2.40;;;18.70;99.20;;;;;;4998971;28;20473;-82
2023/06/13 08:56:46;;;;;;;6.30;2.50;;;18.70;98.60;;;;;;4998588;28;20491;-82
2023/06/13 08:59:17;;;;;;;7.25;2.53;;;18.80;99.60;;;;;;4998572;28;20041;-81
2023/06/13 09:01:44;;;;;;;4.80;2.63;;;18.80;98.70;;;;;;4998810;28;20041;-81
2023/06/13 09:04:11;;;;;;;6.25;2.47;;;18.90;99.00;;;;;;4998679;28;20044;-84
2023/06/13 09:06:39;;;;;;;4.72;2.60;;;19.00;98.20;;;;;;4998255;28;20037;-83
2023/06/13 09:09:06;;;;;;;4.53;2.35;;;19.10;98.10;;;;;;4999664;28;20056;-83
2023/06/13 09:11:34;;;;;;;6.43;2.40;;;19.20;98.00;;;;;;4998971;28;20042;-81
2023/06/13 09:14:02;;;;;;;5.90;2.25;;;19.40;97.50;;;;;;4998054;28;20050;-83
2023/06/13 09:16:30;;;;;;;10.20;2.50;;;19.40;95.20;;;;;;4998394;28;20038;-83
2023/06/13 09:18:56;;;;;;;6.22;2.25;;;19.40;96.10;;;;;;5000177;28;20065;-86
2023/06/13 09:21:21;;;;;;;8.05;2.40;;;19.50;97.00;;;;;;4998446;28;20445;-82
2023/06/13 09:23:48;;;;;;;5.70;2.30;;;19.70;94.20;;;;;;4997778;28;20069;-83
2023/06/13 09:26:17;;;;;;;3.35;2.08;;;19.70;93.50;;;;;;4997273;28;20035;-80
2023/06/13 09:28:45;;;;;;;4.18;2.53;;;19.80;94.30;;;;;;4979728;28;20034;-83
2023/06/13 09:31:11;;;;;;;5.00;2.35;;;19.90;91.80;;;;;;4998691;28;20045;-81
2023/06/13 09:33:37;;;;;;;7.60;2.25;;;20.10;93.40;;;;;;5000744;28;20042;-82
2023/06/13 09:36:07;;;;;;;5.88;2.72;;;20.30;92.50;;;;;;4996871;28;20041;-78
2023/06/13 09:38:40;;;;;;;3.38;2.00;;;20.40;92.40;;;;;;4998859;28;20041;-82
2023/06/13 09:41:08;;;;;;;5.53;2.40;;;20.80;91.40;;;;;;4998898;28;20090;-81
2023/06/13 09:43:34;;;;;;;5.70;2.28;;;21.10;90.90;;;;;;4998890;28;20037;-80
2023/06/13 09:46:01;;;;;;;4.38;2.40;;;21.20;90.60;;;;;;4999863;28;20030;-81
2023/06/13 09:48:27;;;;;;;7.72;2.40;;;21.20;88.10;;;;;;4999926;28;20060;-80
2023/06/13 09:50:54;;;;;;;5.85;2.40;;;21.30;90.00;;;;;;5000486;28;20085;-81
2023/06/13 09:53:20;;;;;;;5.18;2.17;;;21.40;90.50;;;;;;4999890;28;20566;-82
2023/06/13 09:55:45;;;;;;;6.78;2.63;;;21.60;88.20;;;;;;4998945;28;20049;-82
2023/06/13 09:58:11;;;;;;;3.83;2.33;;;21.80;89.60;;;;;;4999775;28;21077;-81
2023/06/13 10:00:36;;;;;;;5.88;2.25;;;22.00;85.20;;;;;;5001338;28;20072;-80
2023/06/13 10:03:02;;;;;;;6.05;2.78;;;22.30;83.50;;;;;;5002671;28;20159;-82
2023/06/13 10:05:28;;;;;;;5.97;2.65;;;22.30;82.40;;;;;;5004554;28;20080;-81
2023/06/13 10:07:55;;;;;;;6.45;2.40;;;22.40;81.40;;;;;;5003935;28;20480;-81
2023/06/13 10:10:21;;;;;;;7.15;2.67;;;22.60;81.60;;;;;;5005045;28;20049;-81
2023/06/13 10:12:55;;;;;;;6.55;2.92;;;22.70;80.40;;;;;;5004458;28;20113;-81
2023/06/13 10:15:38;;;;;;;5.50;2.53;;;22.80;79.50;;;;;;5003541;28;20084;-81
2023/06/13 10:18:10;;;;;;;6.38;2.63;;;23.00;77.20;;;;;;5006392;28;20125;-81
2023/06/13 10:20:38;;;;;;;6.63;2.30;;;22.90;76.10;;;;;;5004509;28;20022;-80
2023/06/13 10:23:06;;;;;;;3.67;2.30;;;22.80;76.40;;;;;;5005530;28;20027;-81
2023/06/13 10:25:33;;;;;;;5.07;2.40;;;22.90;78.80;;;;;;5005472;28;20110;-81
2023/06/13 10:28:14;;;;;;;6.80;2.53;;;23.00;78.70;;;;;;5005915;28;20026;-82
2023/06/13 10:31:11;;;;;;;6.35;2.40;;;23.20;77.80;;;;;;5005349;28;20506;-81
2023/06/13 10:34:18;;;;;;;5.88;2.72;;;23.40;73.60;;;;;;5003977;28;20057;-82
2023/06/13 10:37:41;;;;;;;3.88;2.30;;;23.50;73.40;;;;;;5004571;28;20167;-82
2023/06/13 10:40:20;;;;;;;5.00;2.50;;;23.60;71.20;;;;;;5006523;28;20037;-82
2023/06/13 10:42:54;;;;;;;7.53;2.78;;;23.70;70.70;;;;;;5003919;28;20065;-82
2023/06/13 10:45:24;;;;;;;5.18;2.80;;;23.70;72.80;;;;;;5004533;28;20029;-82
2023/06/13 10:47:50;;;;;;;3.45;2.28;;;23.80;73.30;;;;;;5005242;28;20034;-81
2023/06/13 10:50:16;;;;;;;6.38;2.50;;;24.00;70.00;;;;;;5005394;28;20038;-82
2023/06/13 10:52:49;;;;;;;5.60;2.47;;;24.00;70.30;;;;;;5003900;28;20026;-81
2023/06/13 10:55:25;;;;;;;21.45;3.60;;;24.10;67.40;;;;;;5004909;28;20042;-81
2023/06/13 10:57:59;;;;;;;6.78;2.35;;;23.90;67.30;;;;;;5005244;28;20037;-80
2023/06/13 11:00:34;;;;;;;9.32;3.38;;;24.10;68.60;;;;;;5005082;28;20049;-82
2023/06/13 11:03:04;;;;;;;3.55;2.38;;;24.30;68.70;;;;;;5005087;28;20048;-82
2023/06/13 11:05:36;;;;;;;7.07;2.65;;;24.70;68.10;;;;;;5004847;28;20022;-82
2023/06/13 11:08:04;;;;;;;6.03;2.97;;;25.00;67.10;;;;;;5005010;28;20288;-81
2023/06/13 11:10:30;;;;;;;7.10;2.40;;;24.90;64.40;;;;;;5006349;28;20164;-81
2023/06/13 11:12:56;;;;;;;3.47;2.58;;;24.60;63.40;;;;;;5003936;28;20117;-82
2023/06/13 11:15:27;;;;;;;6.05;2.70;;;24.60;63.50;;;;;;5002129;28;20158;-81
2023/06/13 11:18:13;;;;;;;5.90;2.53;;;24.60;64.10;;;;;;5004108;28;20037;-82
2023/06/13 11:20:55;;;;;;;6.57;2.60;;;24.70;65.20;;;;;;5004666;28;20065;-83
2023/06/13 11:23:37;;;;;;;8.77;2.85;;;24.80;65.20;;;;;;5003888;28;20034;-81
2023/06/13 11:26:04;;;;;;;9.05;3.00;;;24.80;65.30;;;;;;5001301;28;20078;-81
2023/06/13 11:28:31;;;;;;;6.28;2.60;;;24.90;65.90;;;;;;5004853;28;20030;-81
2023/06/13 11:31:03;;;;;;;8.35;2.65;;;24.80;65.40;;;;;;5002765;28;20045;-81
2023/06/13 11:33:30;;;;;;;5.80;2.75;;;24.70;66.50;;;;;;5002892;28;20509;-81
2023/06/13 11:35:58;;;;;;;5.90;2.80;;;24.90;65.90;;;;;;5002366;28;20045;-82
2023/06/13 11:38:31;;;;;;;7.60;2.83;;;25.20;67.50;;;;;;5003478;28;20040;-82
2023/06/13 11:40:57;;;;;;;7.22;2.75;;;25.40;66.10;;;;;;5003525;28;20034;-80
2023/06/13 11:43:30;;;;;;;4.72;2.35;;;25.50;62.00;;;;;;5003561;28;20033;-82
2023/06/13 11:46:00;;;;;;;4.65;2.33;;;25.40;62.40;;;;;;5003335;28;20099;-81
2023/06/13 11:48:26;;;;;;;4.80;2.50;;;25.30;63.80;;;;;;5002950;28;20034;-82
2023/06/13 11:50:51;;;;;;;4.15;2.42;;;25.60;64.60;;;;;;5004133;28;20094;-79
2023/06/13 11:53:18;;;;;;;6.10;2.55;;;25.90;61.10;;;;;;5003133;28;20036;-81
2023/06/13 11:55:45;;;;;;;10.63;3.05;;;25.90;61.10;;;;;;5003837;28;20045;-81
2023/06/13 11:58:10;;;;;;;7.63;2.55;;;25.90;63.10;;;;;;5003593;28;20469;-81
2023/06/13 12:00:53;;;;;;;8.90;2.67;;;25.80;63.70;;;;;;4985578;28;21523;-83
2023/06/13 12:03:23;;;;;;;5.10;2.80;;;26.00;62.80;;;;;;5005011;28;20049;-81
2023/06/13 12:05:50;;;;;;;5.55;2.53;;;26.10;59.40;;;;;;5001131;28;20881;-82
2023/06/13 12:08:16;;;;;;;6.38;3.08;;;26.10;63.10;;;;;;5003645;28;20030;-81
2023/06/13 12:10:46;;;;;;;4.80;2.70;;;26.40;61.70;;;;;;5002177;28;20044;-82
2023/06/13 12:13:14;;;;;;;5.07;2.67;;;26.50;59.30;;;;;;5003262;28;20021;-81
2023/06/13 12:15:40;;;;;;;4.50;2.55;;;26.70;60.40;;;;;;5002002;28;20199;-82
2023/06/13 12:18:05;;;;;;;7.82;2.80;;;26.80;59.50;;;;;;5001737;28;21452;-83
2023/06/13 12:20:35;;;;;;;6.95;2.50;;;26.90;59.50;;;;;;5001490;28;20037;-73
2023/06/13 12:23:01;;;;;;;5.53;2.60;;;27.00;59.10;;;;;;4995079;28;20529;-72
2023/06/13 12:25:30;;;;;;;3.65;2.40;;;26.90;57.20;;;;;;4995726;28;20036;-72
2023/06/13 12:28:01;;;;;;;7.25;2.60;;;26.80;54.20;;;;;;4996267;28;20041;-72
2023/06/13 12:30:35;;;;;;;5.47;2.90;;;26.70;55.90;;;;;;4995356;28;20040;-73
2023/06/13 12:33:01;;;;;;;5.20;2.85;;;26.70;54.70;;;;;;4995040;28;20034;-72
2023/06/13 12:35:29;;;;;;;7.13;2.88;;;26.80;55.10;;;;;;4994616;28;20042;-72
2023/06/13 12:38:00;;;;;;;5.90;2.40;;;26.90;54.80;;;;;;4995904;28;20112;-72
2023/06/13 12:40:33;;;;;;;5.75;3.17;;;27.00;56.00;;;;;;4994903;28;20044;-72
2023/06/13 12:43:01;;;;;;;4.63;2.65;;;26.80;57.10;;;;;;4996330;28;20037;-72
2023/06/13 12:45:30;;;;;;;3.88;2.25;;;27.00;57.10;;;;;;4994553;28;20473;-72
2023/06/13 12:47:57;;;;;;;6.45;2.90;;;27.30;56.40;;;;;;4995145;28;20040;-73
2023/06/13 12:50:24;;;;;;;5.75;2.60;;;27.10;54.20;;;;;;4995402;28;20026;-72